createdAt,value
2018-07-04T00:02:33.651Z,28.50
2018-07-04T00:05:19.595Z,24.83
2018-07-04T00:08:05.193Z,34.20
2018-07-04T00:10:50.699Z,31.53
2018-07-04T00:13:36.996Z,29.77
2018-07-04T00:16:22.969Z,30.33
2018-07-04T00:19:02.543Z,29.03
2018-07-04T00:21:48.188Z,25.67
2018-07-04T00:24:33.886Z,28.13
2018-07-04T00:27:19.351Z,29.87
2018-07-04T00:30:05.049Z,26.90
2018-07-04T00:32:50.577Z,31.87
2018-07-04T00:35:36.153Z,28.43
2018-07-04T00:38:21.911Z,26.63
2018-07-04T00:41:07.435Z,32.30
2018-07-04T00:43:53.135Z,30.00
2018-07-04T00:46:38.793Z,29.80
2018-07-04T00:49:24.230Z,33.77
2018-07-04T00:52:09.811Z,27.63
2018-07-04T00:54:49.583Z,28.00
2018-07-04T00:57:36.801Z,27.67
2018-07-04T01:00:22.338Z,30.20
2018-07-04T01:03:07.738Z,27.67
2018-07-04T01:05:53.236Z,25.67
2018-07-04T01:08:39.618Z,32.57
2018-07-04T01:11:25.303Z,24.73
2018-07-04T01:14:10.691Z,29.10
2018-07-04T01:16:56.336Z,31.50
2018-07-04T01:19:42.693Z,27.57
2018-07-04T01:22:28.277Z,25.70
2018-07-04T01:25:13.748Z,32.17
2018-07-04T01:27:59.263Z,30.37
2018-07-04T01:30:44.944Z,36.40
2018-07-04T01:33:30.285Z,31.50
2018-07-04T01:36:15.830Z,27.97
2018-07-04T01:39:01.312Z,30.03
2018-07-04T01:41:48.380Z,37.33
2018-07-04T01:44:34.023Z,35.27
2018-07-04T01:47:19.493Z,28.90
2018-07-04T01:50:05.100Z,27.67
2018-07-04T01:52:50.578Z,32.00
2018-07-04T01:55:36.155Z,33.07
2018-07-04T01:58:21.818Z,34.33
2018-07-04T02:01:07.363Z,32.27
2018-07-04T02:03:54.020Z,28.97
2018-07-04T02:06:33.694Z,38.63
2018-07-04T02:09:19.290Z,37.97
2018-07-04T02:12:04.926Z,31.47
2018-07-04T02:14:50.751Z,39.17
2018-07-04T02:17:36.238Z,36.13
2018-07-04T02:20:21.710Z,38.90
2018-07-04T02:23:07.475Z,33.47
2018-07-04T02:25:52.972Z,30.40
2018-07-04T02:28:38.495Z,27.60
2018-07-04T02:31:23.920Z,34.20
2018-07-04T02:34:09.365Z,33.80
2018-07-04T02:36:49.920Z,36.67
2018-07-04T02:39:29.623Z,38.07
2018-07-04T02:42:14.975Z,33.37
2018-07-04T02:45:00.540Z,35.37
2018-07-04T02:47:48.497Z,38.30
2018-07-04T02:50:33.840Z,36.63
2018-07-04T02:53:19.502Z,33.53
2018-07-04T02:56:05.053Z,34.90
2018-07-04T02:58:50.776Z,31.73
2018-07-04T03:01:36.300Z,32.97
2018-07-04T03:04:21.876Z,29.97
2018-07-04T03:07:07.373Z,30.77
2018-07-04T03:09:52.908Z,28.73
2018-07-04T03:12:32.553Z,27.47
2018-07-04T03:15:18.075Z,31.60
2018-07-04T03:18:03.498Z,30.00
2018-07-04T03:20:49.235Z,35.07
2018-07-04T03:23:34.651Z,32.33
2018-07-04T03:26:20.175Z,30.87
2018-07-04T03:29:05.927Z,32.43
2018-07-04T03:31:53.687Z,29.23
2018-07-04T03:34:39.217Z,30.83
2018-07-04T03:37:24.648Z,37.50
2018-07-04T03:40:10.103Z,32.27
2018-07-04T03:42:56.323Z,30.60
2018-07-04T03:45:42.030Z,28.73
2018-07-04T03:48:27.573Z,29.97
2018-07-04T03:51:13.148Z,31.27
2018-07-04T03:53:58.855Z,35.00
2018-07-04T03:56:44.326Z,27.87
2018-07-04T03:59:29.905Z,32.67
2018-07-04T04:02:15.314Z,36.10
2018-07-04T04:05:01.030Z,31.17
2018-07-04T04:07:46.626Z,32.37
2018-07-04T04:10:32.096Z,34.00
2018-07-04T04:13:17.541Z,31.17
2018-07-04T04:16:03.219Z,28.67
2018-07-04T04:18:48.898Z,26.17
2018-07-04T04:21:34.329Z,28.37
2018-07-04T04:24:19.886Z,24.67
2018-07-04T04:27:06.017Z,27.63
2018-07-04T04:29:51.556Z,26.73
2018-07-04T04:32:37.056Z,30.97
2018-07-04T04:35:22.671Z,25.87
2018-07-04T04:38:08.186Z,27.07
2018-07-04T04:40:53.753Z,25.70
2018-07-04T04:43:39.319Z,27.33
2018-07-04T04:46:24.876Z,25.87
2018-07-04T04:49:10.482Z,26.73
2018-07-04T04:51:55.803Z,23.00
2018-07-04T04:54:41.322Z,27.37
2018-07-04T04:57:26.845Z,24.13
2018-07-04T05:00:12.475Z,23.07
2018-07-04T05:02:58.071Z,21.23
2018-07-04T05:05:43.586Z,28.10
2018-07-04T05:08:29.263Z,28.70
2018-07-04T05:11:14.899Z,26.53
2018-07-04T05:14:00.527Z,24.60
2018-07-04T05:16:45.963Z,22.83
2018-07-04T05:19:31.498Z,24.87
2018-07-04T05:22:17.256Z,26.20
2018-07-04T05:25:02.796Z,23.27
2018-07-04T05:27:48.329Z,23.50
2018-07-04T05:30:33.805Z,24.53
2018-07-04T05:33:19.371Z,23.60
2018-07-04T05:36:04.716Z,24.33
2018-07-04T05:38:50.275Z,24.70
2018-07-04T05:41:35.991Z,23.77
2018-07-04T05:44:15.813Z,22.05
2018-07-04T05:47:01.306Z,27.95
2018-07-04T05:49:46.881Z,26.52
2018-07-04T05:52:32.573Z,23.35
2018-07-04T05:55:19.453Z,21.33
2018-07-04T05:58:04.959Z,25.27
2018-07-04T06:00:50.405Z,27.65
2018-07-04T06:03:36.443Z,19.48
2018-07-04T06:06:16.825Z,22.37
2018-07-04T06:09:02.521Z,25.65
2018-07-04T06:11:47.924Z,23.22
2018-07-04T06:14:33.467Z,23.62
2018-07-04T06:17:19.099Z,20.12
2018-07-04T06:20:04.528Z,24.35
2018-07-04T06:22:50.056Z,30.50
2018-07-04T06:25:35.443Z,22.80
2018-07-04T06:28:23.309Z,27.37
2018-07-04T06:31:08.821Z,24.75
2018-07-04T06:33:54.351Z,18.12
2018-07-04T06:36:39.703Z,23.42
2018-07-04T06:39:06.583Z,20.62
2018-07-04T06:41:33.466Z,21.75
2018-07-04T06:44:00.348Z,25.95
2018-07-04T06:46:27.218Z,23.38
2018-07-04T06:48:54.168Z,24.80
2018-07-04T06:51:20.979Z,21.12
2018-07-04T06:53:47.778Z,19.92
2018-07-04T06:56:14.566Z,16.93
2018-07-04T06:58:41.399Z,19.37
2018-07-04T07:01:08.213Z,16.12
2018-07-04T07:03:53.764Z,13.55
2018-07-04T07:06:39.192Z,15.68
2018-07-04T07:09:24.929Z,19.30
2018-07-04T07:12:10.511Z,15.40
2018-07-04T07:14:56.083Z,14.90
2018-07-04T07:17:41.706Z,22.73
2018-07-04T07:20:27.299Z,16.37
2018-07-04T07:23:12.859Z,21.00
2018-07-04T07:25:58.401Z,20.35
2018-07-04T07:28:44.489Z,16.80
2018-07-04T07:31:30.093Z,16.12
2018-07-04T07:34:15.672Z,15.23
2018-07-04T07:37:01.013Z,14.80
2018-07-04T07:39:46.598Z,13.40
2018-07-04T07:42:32.157Z,14.68
2018-07-04T07:45:17.794Z,15.48
2018-07-04T07:48:03.173Z,13.60
2018-07-04T07:50:48.819Z,16.82
2018-07-04T07:53:36.519Z,13.18
2018-07-04T07:56:22.048Z,11.90
2018-07-04T07:59:07.736Z,13.72
2018-07-04T08:01:53.198Z,15.80
2018-07-04T08:04:43.764Z,21.95
2018-07-04T08:07:29.274Z,15.38
2018-07-04T08:10:14.828Z,15.05
2018-07-04T08:13:00.258Z,16.25
2018-07-04T08:15:45.783Z,14.98
2018-07-04T08:18:31.103Z,14.33
2018-07-04T08:21:16.591Z,11.93
2018-07-04T08:24:02.174Z,12.07
2018-07-04T08:26:47.730Z,13.93
2018-07-04T08:29:33.233Z,16.20
2018-07-04T08:32:18.804Z,13.70
2018-07-04T08:35:04.214Z,17.10
2018-07-04T08:37:49.766Z,11.88
2018-07-04T08:40:35.216Z,11.80
2018-07-04T08:43:20.843Z,14.75
2018-07-04T08:46:06.321Z,11.53
2018-07-04T08:48:51.949Z,16.07
2018-07-04T08:51:37.418Z,15.25
2018-07-04T08:54:22.883Z,13.18
2018-07-04T08:57:08.346Z,11.18
2018-07-04T08:59:54.765Z,11.57
2018-07-04T09:02:40.216Z,16.60
2018-07-04T09:05:25.748Z,11.22
2018-07-04T09:08:11.192Z,12.98
2018-07-04T09:10:56.947Z,15.50
2018-07-04T09:13:42.667Z,9.55
2018-07-04T09:16:28.112Z,11.90
2018-07-04T09:19:13.686Z,17.80
2018-07-04T09:22:00.058Z,15.05
2018-07-04T09:24:45.589Z,17.65
2018-07-04T09:27:31.054Z,8.58
2018-07-04T09:30:16.648Z,20.55
2018-07-04T09:33:03.211Z,14.07
2018-07-04T09:35:42.967Z,12.85
2018-07-04T09:38:22.515Z,19.40
2018-07-04T09:41:08.083Z,14.70
2018-07-04T09:43:56.652Z,16.45
2018-07-04T09:46:42.206Z,12.95
2018-07-04T09:49:27.803Z,15.18
2018-07-04T09:52:13.153Z,16.23
2018-07-04T09:54:58.668Z,16.20
2018-07-04T09:57:44.124Z,21.27
2018-07-04T10:00:30.083Z,18.67
2018-07-04T10:03:15.441Z,15.85
2018-07-04T10:06:01.137Z,12.00
2018-07-04T10:08:46.633Z,18.55
2018-07-04T10:11:32.067Z,15.63
2018-07-04T10:14:18.520Z,13.35
2018-07-04T10:17:04.140Z,16.05
2018-07-04T10:19:49.558Z,13.58
2018-07-04T10:22:35.093Z,12.68
2018-07-04T10:25:14.884Z,17.42
2018-07-04T10:28:01.058Z,13.93
2018-07-04T10:30:46.579Z,12.43
2018-07-04T10:33:32.147Z,13.93
2018-07-04T10:36:18.478Z,18.17
2018-07-04T10:39:04.661Z,13.70
2018-07-04T10:41:50.239Z,20.10
2018-07-04T10:44:36.222Z,17.57
2018-07-04T10:47:21.751Z,16.12
2018-07-04T10:50:07.191Z,18.57
2018-07-04T10:52:52.784Z,14.33
2018-07-04T10:55:38.479Z,13.85
2018-07-04T10:58:24.828Z,19.75
2018-07-04T11:01:10.412Z,13.75
2018-07-04T11:03:55.939Z,14.98
2018-07-04T11:06:41.939Z,17.98
2018-07-04T11:09:22.619Z,17.62
2018-07-04T11:12:08.320Z,12.05
2018-07-04T11:14:53.669Z,13.93
2018-07-04T11:17:39.039Z,11.85
2018-07-04T11:20:24.496Z,18.55
2018-07-04T11:23:10.076Z,19.77
2018-07-04T11:25:55.606Z,18.52
2018-07-04T11:28:41.043Z,11.95
2018-07-04T11:31:27.424Z,13.55
2018-07-04T11:34:13.916Z,13.03
2018-07-04T11:36:59.313Z,15.53
2018-07-04T11:39:44.864Z,16.12
2018-07-04T11:42:31.425Z,18.02
2018-07-04T11:45:16.809Z,17.57
2018-07-04T11:47:43.709Z,15.98
2018-07-04T11:50:10.553Z,15.80
2018-07-04T11:52:39.791Z,14.98
2018-07-04T11:55:06.836Z,14.63
2018-07-04T11:57:40.202Z,15.63
2018-07-04T12:00:07.683Z,16.97
2018-07-04T12:02:34.510Z,17.45
2018-07-04T12:05:20.128Z,14.38
2018-07-04T12:07:47.006Z,15.58
2018-07-04T12:10:13.875Z,13.90
2018-07-04T12:12:41.659Z,15.65
2018-07-04T12:15:08.486Z,13.10
2018-07-04T12:17:35.595Z,14.45
2018-07-04T12:20:02.388Z,12.55
2018-07-04T12:22:29.406Z,13.50
2018-07-04T12:24:56.359Z,13.62
2018-07-04T12:27:23.223Z,16.67
2018-07-04T12:29:50.131Z,17.23
2018-07-04T12:32:17.003Z,16.65
2018-07-04T12:34:43.810Z,10.85
2018-07-04T12:37:10.628Z,13.40
2018-07-04T12:39:37.528Z,16.15
2018-07-04T12:42:04.873Z,12.35
2018-07-04T12:44:31.701Z,11.08
2018-07-04T12:46:58.597Z,14.07
2018-07-04T12:49:27.415Z,15.05
2018-07-04T12:51:54.638Z,13.10
2018-07-04T12:54:27.133Z,13.25
2018-07-04T12:57:13.700Z,15.60
2018-07-04T12:59:59.145Z,14.90
2018-07-04T13:02:44.851Z,12.30
2018-07-04T13:05:30.332Z,11.88
2018-07-04T13:08:16.591Z,12.45
2018-07-04T13:11:02.425Z,12.88
2018-07-04T13:13:48.052Z,14.68
2018-07-04T13:16:33.714Z,14.65
2018-07-04T13:19:19.305Z,13.53
2018-07-04T13:22:04.760Z,13.62
2018-07-04T13:24:50.379Z,14.20
2018-07-04T13:27:35.910Z,14.58
2018-07-04T13:30:21.761Z,16.80
2018-07-04T13:33:07.509Z,10.28
2018-07-04T13:35:53.157Z,12.73
2018-07-04T13:38:38.647Z,13.75
2018-07-04T13:41:25.237Z,13.83
2018-07-04T13:44:10.711Z,12.80
2018-07-04T13:46:56.291Z,10.70
2018-07-04T13:49:41.841Z,15.68
2018-07-04T13:52:27.459Z,13.28
2018-07-04T13:55:13.240Z,13.72
2018-07-04T13:57:58.744Z,11.33
2018-07-04T14:00:44.333Z,8.93
2018-07-04T14:03:25.068Z,12.95
2018-07-04T14:06:10.549Z,15.23
2018-07-04T14:08:56.154Z,13.70
2018-07-04T14:11:41.644Z,9.80
2018-07-04T14:14:28.046Z,13.43
2018-07-04T14:17:13.517Z,12.37
2018-07-04T14:19:59.791Z,11.33
2018-07-04T14:22:45.631Z,8.85
2018-07-04T14:25:31.237Z,15.05
2018-07-04T14:28:16.866Z,11.28
2018-07-04T14:31:02.319Z,15.72
2018-07-04T14:33:47.852Z,12.07
2018-07-04T14:36:33.554Z,10.40
2018-07-04T14:39:19.256Z,12.95
2018-07-04T14:42:04.846Z,16.37
2018-07-04T14:44:50.437Z,12.80
2018-07-04T14:47:36.014Z,12.80
2018-07-04T14:50:22.123Z,12.75
2018-07-04T14:53:07.583Z,13.62
2018-07-04T14:55:53.038Z,12.45
2018-07-04T14:58:38.676Z,14.58
2018-07-04T15:01:24.238Z,12.23
2018-07-04T15:04:09.816Z,10.72
2018-07-04T15:06:55.326Z,12.37
2018-07-04T15:09:40.926Z,13.45
2018-07-04T15:12:26.301Z,14.10
2018-07-04T15:15:14.059Z,14.73
2018-07-04T15:17:59.668Z,9.85
2018-07-04T15:20:45.163Z,11.70
2018-07-04T15:23:30.776Z,12.15
2018-07-04T15:26:16.423Z,13.78
2018-07-04T15:29:01.849Z,12.75
2018-07-04T15:31:47.423Z,12.82
2018-07-04T15:34:32.923Z,14.53
2018-07-04T15:37:18.420Z,10.43
2018-07-04T15:40:03.849Z,11.78
2018-07-04T15:42:49.513Z,10.55
2018-07-04T15:45:35.011Z,14.68
2018-07-04T15:48:20.568Z,12.47
2018-07-04T15:51:06.194Z,13.98
2018-07-04T15:53:52.547Z,12.95
2018-07-04T15:56:38.273Z,12.45
2018-07-04T15:59:24.657Z,15.03
2018-07-04T16:02:10.239Z,12.40
2018-07-04T16:04:55.772Z,16.23
2018-07-04T16:07:41.371Z,15.58
2018-07-04T16:10:26.853Z,16.95
2018-07-04T16:13:12.354Z,14.85
2018-07-04T16:15:57.897Z,13.25
2018-07-04T16:18:43.417Z,12.47
2018-07-04T16:21:23.049Z,10.30
2018-07-04T16:24:08.588Z,13.85
2018-07-04T16:26:54.144Z,17.45
2018-07-04T16:29:40.206Z,14.05
2018-07-04T16:32:25.682Z,20.57
2018-07-04T16:35:11.086Z,12.93
2018-07-04T16:37:56.695Z,15.78
2018-07-04T16:40:42.166Z,18.07
2018-07-04T16:43:28.592Z,17.25
2018-07-04T16:46:14.129Z,18.40
2018-07-04T16:48:59.745Z,13.93
2018-07-04T16:51:45.227Z,14.65
2018-07-04T16:54:30.701Z,12.23
2018-07-04T16:57:16.140Z,11.63
2018-07-04T17:00:04.814Z,12.82
2018-07-04T17:02:50.679Z,15.50
2018-07-04T17:05:36.188Z,12.45
2018-07-04T17:08:21.809Z,12.70
2018-07-04T17:11:07.560Z,14.68
2018-07-04T17:13:53.059Z,16.25
2018-07-04T17:16:38.708Z,11.50
2018-07-04T17:19:24.114Z,16.55
2018-07-04T17:22:09.710Z,12.35
2018-07-04T17:24:55.981Z,12.15
2018-07-04T17:27:42.249Z,14.85
2018-07-04T17:30:27.824Z,15.35
2018-07-04T17:33:13.681Z,14.58
2018-07-04T17:55:48.379Z,16.15
2018-07-04T17:58:34.264Z,15.53
2018-07-04T18:01:19.727Z,14.95
2018-07-04T18:04:05.539Z,13.70
2018-07-04T18:06:51.203Z,14.70
2018-07-04T18:09:36.726Z,10.90
2018-07-04T18:12:22.219Z,15.95
2018-07-04T18:15:02.775Z,16.37
2018-07-04T18:17:48.348Z,17.23
2018-07-04T18:20:33.897Z,17.23
2018-07-04T18:23:19.335Z,15.10
2018-07-04T18:26:05.651Z,17.57
2018-07-04T18:28:51.287Z,15.10
2018-07-04T18:31:36.644Z,16.05
2018-07-04T18:34:22.178Z,13.45
2018-07-04T18:37:07.769Z,14.58
2018-07-04T18:39:53.378Z,13.30
2018-07-04T18:42:39.919Z,18.27
2018-07-04T18:45:25.319Z,12.43
2018-07-04T18:48:10.913Z,16.75
2018-07-04T18:50:57.246Z,16.60
2018-07-04T18:53:42.657Z,13.80
2018-07-04T18:56:28.182Z,16.87
2018-07-04T18:59:13.802Z,16.05
2018-07-04T19:01:59.497Z,14.30
2018-07-04T19:04:44.966Z,15.83
2018-07-04T19:07:30.711Z,18.67
2018-07-04T19:10:16.351Z,18.35
2018-07-04T19:13:01.857Z,18.37
2018-07-04T19:15:50.361Z,15.10
2018-07-04T19:18:35.809Z,14.73
2018-07-04T19:21:22.068Z,15.43
2018-07-04T19:24:07.762Z,19.73
2018-07-04T19:26:53.357Z,19.65
2018-07-04T19:29:39.609Z,16.48
2018-07-04T19:32:25.201Z,18.70
2018-07-04T19:35:11.621Z,18.67
2018-07-04T19:37:57.222Z,24.07
2018-07-04T19:40:42.853Z,20.70
2018-07-04T19:43:28.537Z,17.80
2018-07-04T19:46:14.341Z,21.70
2018-07-04T19:48:59.818Z,19.10
2018-07-04T19:51:45.462Z,21.33
2018-07-04T19:54:30.963Z,18.67
2018-07-04T19:57:17.452Z,17.93
2018-07-04T20:00:03.436Z,19.30
2018-07-04T20:02:49.094Z,20.87
2018-07-04T20:05:34.659Z,24.03
2018-07-04T20:08:20.309Z,18.03
2018-07-04T20:11:05.939Z,25.03
2018-07-04T20:13:52.318Z,20.47
2018-07-04T20:16:37.651Z,22.37
2018-07-04T20:19:24.010Z,22.73
2018-07-04T20:22:09.501Z,19.23
2018-07-04T20:24:55.768Z,21.33
2018-07-04T20:27:41.267Z,21.30
2018-07-04T20:30:27.553Z,19.53
2018-07-04T20:33:13.600Z,18.97
2018-07-04T20:35:59.126Z,18.17
2018-07-04T20:38:44.599Z,20.20
2018-07-04T20:41:30.228Z,17.33
2018-07-04T20:44:15.952Z,18.17
2018-07-04T20:47:01.544Z,23.37
2018-07-04T20:49:41.201Z,22.73
2018-07-04T20:52:26.696Z,26.83
2018-07-04T20:55:12.294Z,26.60
2018-07-04T20:57:57.911Z,20.37
2018-07-04T21:00:43.975Z,23.43
2018-07-04T21:03:29.485Z,22.93
2018-07-04T21:06:14.969Z,23.83
2018-07-04T21:09:00.944Z,26.50
2018-07-04T21:11:46.540Z,21.07
2018-07-04T21:14:31.910Z,26.77
2018-07-04T21:17:18.291Z,18.93
2018-07-04T21:20:03.836Z,23.43
2018-07-04T21:22:49.331Z,24.20
2018-07-04T21:25:34.796Z,23.77
2018-07-04T21:28:20.383Z,22.23
2018-07-04T21:31:05.891Z,26.47
2018-07-04T21:33:51.523Z,25.67
2018-07-04T21:36:37.209Z,24.33
2018-07-04T21:39:22.809Z,22.57
2018-07-04T21:42:08.421Z,22.33
2018-07-04T21:44:53.891Z,24.23
2018-07-04T21:47:39.300Z,26.63
2018-07-04T21:50:24.768Z,24.40
2018-07-04T21:53:10.409Z,25.17
2018-07-04T21:55:56.065Z,27.17
2018-07-04T21:58:41.571Z,24.47
2018-07-04T22:01:27.091Z,23.37
2018-07-04T22:04:13.644Z,28.30
2018-07-04T22:06:58.871Z,23.50
2018-07-04T22:09:38.891Z,26.63
2018-07-04T22:12:24.408Z,25.83
2018-07-04T22:15:10.019Z,25.93
2018-07-04T22:17:55.618Z,25.20
2018-07-04T22:20:41.101Z,26.40
2018-07-04T22:23:26.789Z,26.23
2018-07-04T22:26:12.308Z,24.80
2018-07-04T22:28:57.803Z,23.27
2018-07-04T22:31:43.331Z,24.63
2018-07-04T22:34:29.606Z,24.80
2018-07-04T22:37:15.281Z,27.47
2018-07-04T22:40:00.728Z,32.27
2018-07-04T22:42:46.029Z,30.87
2018-07-04T22:45:31.688Z,26.33
2018-07-04T22:48:17.416Z,26.00
2018-07-04T22:51:02.984Z,29.93
2018-07-04T22:53:48.531Z,25.57
2018-07-04T22:56:34.948Z,24.73
2018-07-04T22:59:20.476Z,28.20
2018-07-04T23:02:06.217Z,25.70
2018-07-04T23:04:51.701Z,26.33
2018-07-04T23:07:37.303Z,25.07
2018-07-04T23:10:22.776Z,30.30
2018-07-04T23:13:08.383Z,23.30
2018-07-04T23:15:53.884Z,27.50
2018-07-04T23:18:39.458Z,26.77
2018-07-04T23:21:29.948Z,27.13
2018-07-04T23:24:15.483Z,22.60
2018-07-04T23:27:00.951Z,25.60
2018-07-04T23:29:47.229Z,32.00
2018-07-04T23:32:32.908Z,32.97
2018-07-04T23:35:18.333Z,47.20
2018-07-04T23:38:03.919Z,37.53
2018-07-04T23:40:49.510Z,27.67
2018-07-04T23:43:34.931Z,31.70
2018-07-04T23:46:20.426Z,30.57
2018-07-04T23:49:06.064Z,30.23
2018-07-04T23:51:51.504Z,29.77
2018-07-04T23:54:37.050Z,31.43
2018-07-04T23:57:22.399Z,27.33
